createdAt,value
2022-10-22T00:02:27.810Z,100413.25
2022-10-22T00:04:57.132Z,100394.00
2022-10-22T00:07:24.473Z,100387.00
2022-10-22T00:09:51.270Z,100394.16
2022-10-22T00:12:18.840Z,100401.19
2022-10-22T00:14:46.531Z,100366.28
2022-10-22T00:17:13.912Z,100410.22
2022-10-22T00:19:40.733Z,100399.97
2022-10-22T00:22:08.637Z,100407.91
2022-10-22T00:24:36.185Z,100389.97
2022-10-22T00:27:03.184Z,100399.66
2022-10-22T00:29:29.788Z,100412.25
2022-10-22T00:31:57.004Z,100410.75
2022-10-22T00:34:23.881Z,100381.63
2022-10-22T00:36:50.746Z,100396.31
2022-10-22T00:39:19.596Z,100373.81
2022-10-22T00:41:50.051Z,100401.97
2022-10-22T00:44:54.375Z,100395.66
2022-10-22T00:47:24.649Z,100392.22
2022-10-22T00:49:53.777Z,100372.97
2022-10-22T00:52:21.330Z,100369.88
2022-10-22T00:54:48.556Z,100395.69
2022-10-22T00:57:16.739Z,100364.88
2022-10-22T00:59:43.475Z,100375.47
2022-10-22T01:02:10.079Z,100365.44
2022-10-22T01:04:36.700Z,100381.97
2022-10-22T01:07:03.627Z,100395.34
2022-10-22T01:09:33.292Z,100394.94
2022-10-22T01:12:23.591Z,100391.97
2022-10-22T01:15:14.415Z,100386.00
2022-10-22T01:17:47.049Z,100382.78
2022-10-22T01:20:37.707Z,100387.34
2022-10-22T01:23:16.354Z,100386.63
2022-10-22T01:26:12.434Z,100373.06
2022-10-22T01:29:19.369Z,100387.53
2022-10-22T01:31:54.459Z,100366.25
2022-10-22T01:34:25.821Z,100372.25
2022-10-22T01:36:54.799Z,100377.41
2022-10-22T01:39:23.399Z,100358.66
2022-10-22T01:41:53.319Z,100353.75
2022-10-22T01:44:24.342Z,100375.44
2022-10-22T01:46:58.863Z,100368.50
2022-10-22T01:49:38.072Z,100349.97
2022-10-22T01:52:17.912Z,100367.06
2022-10-22T01:54:54.948Z,100353.88
2022-10-22T01:58:03.624Z,100365.25
2022-10-22T02:00:30.629Z,100367.66
2022-10-22T02:03:10.727Z,100366.50
2022-10-22T02:05:48.345Z,100352.78
2022-10-22T02:08:27.183Z,100344.00
2022-10-22T02:10:54.983Z,100363.66
2022-10-22T02:13:27.640Z,100361.75
2022-10-22T02:15:57.021Z,100347.91
2022-10-22T02:18:28.763Z,100362.41
2022-10-22T02:20:56.076Z,100364.66
2022-10-22T02:23:23.384Z,100355.38
2022-10-22T02:26:21.620Z,100359.38
2022-10-22T02:28:51.096Z,100359.91
2022-10-22T02:31:28.422Z,100349.44
2022-10-22T02:33:58.274Z,100341.88
2022-10-22T02:36:28.982Z,100337.41
2022-10-22T02:38:56.264Z,100362.31
2022-10-22T02:41:24.390Z,100329.75
2022-10-22T02:43:55.270Z,100338.38
2022-10-22T02:46:22.710Z,100366.88
2022-10-22T02:48:49.430Z,100356.97
2022-10-22T02:51:16.051Z,100337.66
2022-10-22T02:53:42.762Z,100356.28
2022-10-22T02:56:09.907Z,100336.16
2022-10-22T02:58:36.552Z,100320.84
2022-10-22T03:01:03.369Z,100346.69
2022-10-22T03:03:30.058Z,100338.50
2022-10-22T03:05:56.714Z,100345.66
2022-10-22T03:08:23.311Z,100305.88
2022-10-22T03:10:49.971Z,100344.00
2022-10-22T03:13:16.687Z,100359.16
2022-10-22T03:15:43.282Z,100353.31
2022-10-22T03:18:09.985Z,100333.88
2022-10-22T03:20:38.930Z,100333.38
2022-10-22T03:23:06.842Z,100331.19
2022-10-22T03:25:34.677Z,100344.56
2022-10-22T03:28:09.259Z,100349.28
2022-10-22T03:30:36.670Z,100353.03
2022-10-22T03:33:03.367Z,100373.94
2022-10-22T03:35:31.378Z,100357.25
2022-10-22T03:38:00.975Z,100362.84
2022-10-22T03:40:27.657Z,100365.09
2022-10-22T03:42:54.348Z,100371.88
2022-10-22T03:45:23.892Z,100346.13
2022-10-22T03:47:50.508Z,100353.31
2022-10-22T03:50:17.365Z,100361.91
2022-10-22T03:52:44.043Z,100366.34
2022-10-22T03:55:10.741Z,100360.00
2022-10-22T03:57:37.659Z,100345.09
2022-10-22T04:00:06.333Z,100365.94
2022-10-22T04:02:32.988Z,100362.97
2022-10-22T04:04:59.601Z,100333.88
2022-10-22T04:07:26.286Z,100347.38
2022-10-22T04:09:52.892Z,100353.19
2022-10-22T04:12:19.607Z,100339.41
2022-10-22T04:14:46.253Z,100362.03
2022-10-22T04:17:12.865Z,100351.78
2022-10-22T04:19:39.649Z,100359.63
2022-10-22T04:22:06.255Z,100329.28
2022-10-22T04:24:32.960Z,100358.34
2022-10-22T04:26:59.539Z,100349.72
2022-10-22T04:29:26.619Z,100359.94
2022-10-22T04:31:53.364Z,100334.13
2022-10-22T04:34:21.232Z,100337.81
2022-10-22T04:36:47.999Z,100325.91
2022-10-22T04:39:15.380Z,100354.81
2022-10-22T04:41:42.039Z,100354.72
2022-10-22T04:44:14.058Z,100350.78
2022-10-22T04:46:43.863Z,100347.69
2022-10-22T04:49:10.524Z,100330.00
2022-10-22T04:51:37.167Z,100335.69
2022-10-22T04:54:03.922Z,100325.84
2022-10-22T04:56:31.667Z,100340.88
2022-10-22T04:59:09.173Z,100346.56
2022-10-22T05:01:42.942Z,100299.53
2022-10-22T05:04:16.111Z,100326.41
2022-10-22T05:06:42.863Z,100322.44
2022-10-22T05:09:15.576Z,100337.50
2022-10-22T05:11:46.210Z,100354.53
2022-10-22T05:14:13.289Z,100353.50
2022-10-22T05:16:40.086Z,100334.88
2022-10-22T05:19:08.034Z,100366.78
2022-10-22T05:21:35.667Z,100365.47
2022-10-22T05:24:02.496Z,100345.59
2022-10-22T05:26:29.987Z,100362.38
2022-10-22T05:28:56.759Z,100351.25
2022-10-22T05:31:23.355Z,100332.44
2022-10-22T05:33:50.123Z,100351.94
2022-10-22T05:36:21.261Z,100362.13
2022-10-22T05:38:50.780Z,100337.47
2022-10-22T05:41:20.666Z,100350.00
2022-10-22T05:43:47.367Z,100364.63
2022-10-22T05:46:21.965Z,100323.53
2022-10-22T05:49:00.857Z,100347.69
2022-10-22T05:51:29.687Z,100353.16
2022-10-22T05:54:08.131Z,100336.00
2022-10-22T05:56:35.731Z,100325.63
2022-10-22T06:01:32.632Z,100364.91
2022-10-22T06:04:01.442Z,100332.22
2022-10-22T06:06:35.885Z,100356.81
2022-10-22T06:09:07.284Z,100355.78
2022-10-22T06:11:35.207Z,100328.81
2022-10-22T06:14:02.565Z,100337.69
2022-10-22T06:16:30.600Z,100353.81
2022-10-22T06:18:59.350Z,100366.41
2022-10-22T06:21:25.999Z,100350.47
2022-10-22T06:23:56.895Z,100366.78
2022-10-22T06:26:23.639Z,100355.69
2022-10-22T06:28:50.715Z,100381.75
2022-10-22T06:31:17.532Z,100356.44
2022-10-22T06:33:44.237Z,100383.84
2022-10-22T06:36:20.039Z,100392.50
2022-10-22T06:38:46.736Z,100367.13
2022-10-22T06:41:16.346Z,100381.84
2022-10-22T06:43:45.393Z,100364.91
2022-10-22T06:46:14.906Z,100382.69
2022-10-22T06:48:49.548Z,100393.41
2022-10-22T06:51:16.127Z,100384.03
2022-10-22T06:53:42.799Z,100355.94
2022-10-22T06:56:14.384Z,100368.81
2022-10-22T06:58:41.073Z,100392.84
2022-10-22T07:01:16.533Z,100389.41
2022-10-22T07:03:46.442Z,100385.22
2022-10-22T07:06:14.043Z,100395.31
2022-10-22T07:08:41.520Z,100395.56
2022-10-22T07:11:09.567Z,100400.09
2022-10-22T07:13:36.723Z,100382.63
2022-10-22T07:16:04.165Z,100378.41
2022-10-22T07:18:32.841Z,100400.56
2022-10-22T07:20:59.725Z,100387.75
2022-10-22T07:23:29.942Z,100399.69
2022-10-22T07:28:29.818Z,100390.41
2022-10-22T07:30:56.405Z,100393.59
2022-10-22T07:33:22.983Z,100385.91
2022-10-22T07:35:49.642Z,100362.13
2022-10-22T07:38:19.652Z,100378.66
2022-10-22T07:40:46.266Z,100378.97
2022-10-22T07:43:12.872Z,100358.63
2022-10-22T07:45:41.018Z,100381.47
2022-10-22T07:48:07.672Z,100363.44
2022-10-22T07:50:34.439Z,100376.94
2022-10-22T07:53:01.278Z,100383.69
2022-10-22T07:55:28.002Z,100374.00
2022-10-22T07:57:54.651Z,100402.75
2022-10-22T08:00:25.199Z,100386.28
2022-10-22T08:02:52.636Z,100384.88
2022-10-22T08:05:19.483Z,100383.28
2022-10-22T08:07:46.432Z,100402.00
2022-10-22T08:10:13.660Z,100377.09
2022-10-22T08:12:42.011Z,100398.97
2022-10-22T08:15:09.880Z,100391.25
2022-10-22T08:17:37.554Z,100384.16
2022-10-22T08:20:04.794Z,100383.28
2022-10-22T08:22:31.498Z,100394.41
2022-10-22T08:24:59.172Z,100388.22
2022-10-22T08:27:26.193Z,100357.03
2022-10-22T08:29:52.816Z,100366.53
2022-10-22T08:32:19.476Z,100377.59
2022-10-22T08:34:46.138Z,100380.56
2022-10-22T08:37:14.588Z,100347.31
2022-10-22T08:39:41.516Z,100387.38
2022-10-22T08:42:39.522Z,100401.34
2022-10-22T08:45:24.447Z,100394.38
2022-10-22T08:48:03.156Z,100406.03
2022-10-22T08:50:50.942Z,100405.38
2022-10-22T08:53:21.047Z,100378.09
2022-10-22T08:55:49.974Z,100395.56
2022-10-22T08:58:20.348Z,100406.50
2022-10-22T09:00:58.698Z,100389.75
2022-10-22T09:03:37.275Z,100384.41
2022-10-22T09:06:31.816Z,100404.69
2022-10-22T09:09:04.749Z,100384.69
2022-10-22T09:11:33.350Z,100405.22
2022-10-22T09:14:02.446Z,100398.59
2022-10-22T09:16:54.001Z,100413.97
2022-10-22T09:19:51.700Z,100412.94
2022-10-22T09:22:56.474Z,100419.75
2022-10-22T09:25:27.488Z,100410.00
2022-10-22T09:28:01.731Z,100425.81
2022-10-22T09:30:38.071Z,100433.28
2022-10-22T09:33:07.977Z,100432.34
2022-10-22T09:35:43.684Z,100431.44
2022-10-22T09:38:15.792Z,100425.91
2022-10-22T09:40:49.814Z,100434.34
2022-10-22T09:43:19.549Z,100432.31
2022-10-22T09:45:46.478Z,100428.22
2022-10-22T09:48:20.315Z,100425.94
2022-10-22T09:50:57.180Z,100425.19
2022-10-22T09:53:29.507Z,100411.88
2022-10-22T09:56:00.370Z,100421.81
2022-10-22T09:58:29.082Z,100417.00
2022-10-22T10:01:00.805Z,100397.53
2022-10-22T10:03:31.765Z,100409.78
2022-10-22T10:06:04.771Z,100417.94
2022-10-22T10:08:33.322Z,100389.56
2022-10-22T10:11:06.103Z,100410.22
2022-10-22T10:13:55.382Z,100411.22
2022-10-22T10:16:23.968Z,100402.19
2022-10-22T10:19:13.961Z,100402.72
2022-10-22T10:21:57.346Z,100408.84
2022-10-22T10:24:26.969Z,100403.53
2022-10-22T10:27:00.229Z,100405.56
2022-10-22T10:29:49.474Z,100383.78
2022-10-22T10:32:37.229Z,100385.06
2022-10-22T10:35:15.418Z,100383.06
2022-10-22T10:37:51.219Z,100390.47
2022-10-22T10:40:26.387Z,100371.34
2022-10-22T10:42:59.815Z,100379.28
2022-10-22T10:45:37.900Z,100388.25
2022-10-22T10:48:16.972Z,100386.16
2022-10-22T10:51:09.212Z,100367.34
2022-10-22T10:53:48.299Z,100368.19
2022-10-22T10:56:25.247Z,100358.34
2022-10-22T10:59:03.331Z,100359.63
2022-10-22T11:01:32.210Z,100354.00
2022-10-22T11:04:36.455Z,100345.72
2022-10-22T11:07:30.036Z,100351.34
2022-10-22T11:10:15.288Z,100328.56
2022-10-22T11:12:45.814Z,100314.66
2022-10-22T11:15:37.012Z,100341.19
2022-10-22T11:18:10.486Z,100328.34
2022-10-22T11:20:48.890Z,100340.34
2022-10-22T11:23:37.084Z,100333.72
2022-10-22T11:26:11.511Z,100343.66
2022-10-22T11:28:44.019Z,100330.97
2022-10-22T11:31:15.926Z,100332.94
2022-10-22T11:34:04.985Z,100324.88
2022-10-22T11:36:43.644Z,100324.81
2022-10-22T11:39:43.216Z,100334.63
2022-10-22T11:42:30.201Z,100344.19
2022-10-22T11:45:28.638Z,100329.47
2022-10-22T11:48:17.642Z,100322.41
2022-10-22T11:50:53.026Z,100328.34
2022-10-22T11:53:32.367Z,100315.72
2022-10-22T11:56:23.181Z,100309.38
2022-10-22T11:58:53.739Z,100305.78
2022-10-22T12:01:26.868Z,100310.31
2022-10-22T12:04:13.553Z,100310.94
2022-10-22T12:06:58.360Z,100307.34
2022-10-22T12:09:30.155Z,100303.28
2022-10-22T12:12:04.161Z,100301.19
2022-10-22T12:14:41.727Z,100283.53
2022-10-22T12:17:14.397Z,100307.38
2022-10-22T12:19:47.110Z,100319.44
2022-10-22T12:22:13.765Z,100318.13
2022-10-22T12:24:47.222Z,100315.72
2022-10-22T12:27:25.558Z,100313.88
2022-10-22T12:29:58.087Z,100316.28
2022-10-22T12:32:36.842Z,100313.00
2022-10-22T12:35:17.175Z,100296.41
2022-10-22T12:37:44.100Z,100282.97
2022-10-22T12:40:19.226Z,100288.47
2022-10-22T12:43:05.625Z,100292.41
2022-10-22T12:45:35.190Z,100277.88
2022-10-22T12:48:08.220Z,100296.47
2022-10-22T12:50:47.327Z,100294.09
2022-10-22T12:53:39.336Z,100279.97
2022-10-22T12:56:16.506Z,100274.59
2022-10-22T12:58:52.944Z,100260.81
2022-10-22T13:01:20.150Z,100245.53
2022-10-22T13:04:03.599Z,100271.44
2022-10-22T13:06:30.493Z,100270.88
2022-10-22T13:09:00.369Z,100282.47
2022-10-22T13:11:53.717Z,100281.72
2022-10-22T13:14:26.057Z,100271.97
2022-10-22T13:17:17.116Z,100262.03
2022-10-22T13:19:48.460Z,100276.50
2022-10-22T13:22:27.350Z,100278.03
2022-10-22T13:27:28.519Z,100268.75
2022-10-22T13:29:57.351Z,100273.91
2022-10-22T13:32:31.101Z,100269.38
2022-10-22T13:35:03.021Z,100264.97
2022-10-22T13:37:32.573Z,100257.50
2022-10-22T13:39:59.114Z,100279.34
2022-10-22T13:42:29.400Z,100268.03
2022-10-22T13:44:56.001Z,100263.66
2022-10-22T13:47:28.274Z,100269.66
2022-10-22T13:49:58.623Z,100273.53
2022-10-22T13:52:42.512Z,100275.09
2022-10-22T13:55:26.970Z,100278.94
2022-10-22T13:57:57.375Z,100281.81
2022-10-22T14:00:24.504Z,100268.13
2022-10-22T14:02:55.735Z,100289.56
2022-10-22T14:05:22.880Z,100285.53
2022-10-22T14:07:49.578Z,100285.22
2022-10-22T14:10:21.923Z,100277.09
2022-10-22T14:12:53.262Z,100286.31
2022-10-22T14:15:27.290Z,100265.53
2022-10-22T14:17:57.507Z,100267.00
2022-10-22T14:20:29.739Z,100260.22
2022-10-22T14:23:00.355Z,100244.41
2022-10-22T14:25:29.243Z,100230.53
2022-10-22T14:27:56.633Z,100268.00
2022-10-22T14:30:25.246Z,100266.78
2022-10-22T14:32:52.139Z,100256.31
2022-10-22T14:35:21.715Z,100268.84
2022-10-22T14:37:48.418Z,100273.09
2022-10-22T14:40:19.254Z,100257.16
2022-10-22T14:42:48.711Z,100267.84
2022-10-22T14:45:33.440Z,100243.81
2022-10-22T14:48:03.201Z,100264.00
2022-10-22T14:50:29.805Z,100262.16
2022-10-22T14:52:58.866Z,100253.06
2022-10-22T14:55:27.144Z,100239.78
2022-10-22T14:57:54.153Z,100253.91
2022-10-22T15:00:21.480Z,100271.66
2022-10-22T15:02:48.899Z,100251.81
2022-10-22T15:05:17.411Z,100256.56
2022-10-22T15:07:45.206Z,100266.41
2022-10-22T15:10:11.918Z,100253.63
2022-10-22T15:12:38.562Z,100280.59
2022-10-22T15:15:06.127Z,100265.91
2022-10-22T15:17:32.805Z,100277.44
2022-10-22T15:20:04.311Z,100266.22
2022-10-22T15:22:35.148Z,100283.00
2022-10-22T15:25:07.762Z,100285.94
2022-10-22T15:27:34.766Z,100287.63
2022-10-22T15:32:34.070Z,100264.66
2022-10-22T15:35:01.732Z,100277.03
2022-10-22T15:37:28.416Z,100295.19
2022-10-22T15:39:55.009Z,100325.19
2022-10-22T15:42:23.305Z,100315.28
2022-10-22T15:44:56.785Z,100323.13
2022-10-22T15:47:25.290Z,100314.38
2022-10-22T15:49:51.878Z,100334.00
2022-10-22T15:52:18.530Z,100328.28
2022-10-22T15:54:45.127Z,100344.59
2022-10-22T15:57:11.712Z,100349.94
2022-10-22T15:59:38.407Z,100323.50
2022-10-22T16:02:05.380Z,100312.06
2022-10-22T16:04:31.971Z,100353.56
2022-10-22T16:06:58.849Z,100351.94
2022-10-22T16:09:27.331Z,100350.13
2022-10-22T16:11:55.536Z,100369.31
2022-10-22T16:14:23.559Z,100364.41
2022-10-22T16:16:55.628Z,100364.63
2022-10-22T16:19:23.976Z,100363.97
2022-10-22T16:21:52.259Z,100348.00
2022-10-22T16:24:19.007Z,100361.50
2022-10-22T16:26:47.694Z,100359.06
2022-10-22T16:29:14.674Z,100367.38
2022-10-22T16:31:43.611Z,100366.84
2022-10-22T16:34:11.872Z,100344.63
2022-10-22T16:36:38.916Z,100373.13
2022-10-22T16:39:08.851Z,100368.09
2022-10-22T16:41:36.360Z,100368.53
2022-10-22T16:44:05.967Z,100346.75
2022-10-22T16:46:33.479Z,100381.41
2022-10-22T16:49:00.286Z,100352.09
2022-10-22T16:51:28.414Z,100379.81
2022-10-22T16:53:59.814Z,100381.63
2022-10-22T16:56:26.960Z,100396.75
2022-10-22T16:58:56.728Z,100388.22
2022-10-22T17:01:25.932Z,100383.31
2022-10-22T17:03:56.292Z,100384.28
2022-10-22T17:06:24.487Z,100391.16
2022-10-22T17:08:51.180Z,100392.09
2022-10-22T17:11:21.616Z,100388.03
2022-10-22T17:13:51.256Z,100416.44
2022-10-22T17:16:23.844Z,100416.25
2022-10-22T17:18:50.979Z,100418.16
2022-10-22T17:21:18.869Z,100419.88
2022-10-22T17:23:46.762Z,100439.19
2022-10-22T17:26:17.478Z,100445.25
2022-10-22T17:28:44.523Z,100446.50
2022-10-22T17:31:27.919Z,100465.44
2022-10-22T17:33:56.728Z,100462.34
2022-10-22T17:36:27.533Z,100466.72
2022-10-22T17:39:10.724Z,100461.03
2022-10-22T17:41:37.816Z,100461.69
2022-10-22T17:44:09.395Z,100459.19
2022-10-22T17:46:36.379Z,100500.63
2022-10-22T17:49:06.878Z,100517.00
2022-10-22T17:51:34.373Z,100522.88
2022-10-22T17:54:03.422Z,100520.47
2022-10-22T17:56:35.995Z,100549.16
2022-10-22T17:59:02.752Z,100535.72
2022-10-22T18:01:34.407Z,100530.56
2022-10-22T18:04:04.219Z,100559.16
2022-10-22T18:06:31.569Z,100548.94
2022-10-22T18:08:58.415Z,100561.53
2022-10-22T18:11:27.722Z,100548.84
2022-10-22T18:13:57.930Z,100568.16
2022-10-22T18:16:25.995Z,100571.88
2022-10-22T18:18:54.961Z,100541.00
2022-10-22T18:21:24.466Z,100562.72
2022-10-22T18:23:51.928Z,100582.06
2022-10-22T18:26:21.451Z,100591.06
2022-10-22T18:28:51.010Z,100603.56
2022-10-22T18:31:22.718Z,100586.56
2022-10-22T18:33:50.463Z,100598.59
2022-10-22T18:36:20.628Z,100597.81
2022-10-22T18:38:56.090Z,100604.69
2022-10-22T18:41:22.731Z,100586.03
2022-10-22T18:43:57.054Z,100629.63
2022-10-22T18:46:24.278Z,100592.41
2022-10-22T18:48:58.026Z,100595.97
2022-10-22T18:51:30.686Z,100621.28
2022-10-22T18:54:05.145Z,100625.59
2022-10-22T18:56:42.327Z,100611.84
2022-10-22T18:59:17.207Z,100617.06
2022-10-22T19:01:43.844Z,100623.94
2022-10-22T19:04:11.811Z,100600.91
2022-10-22T19:06:40.692Z,100607.00
2022-10-22T19:09:10.050Z,100613.88
2022-10-22T19:11:36.870Z,100609.44
2022-10-22T19:14:03.617Z,100599.25
2022-10-22T19:16:30.499Z,100618.91
2022-10-22T19:19:05.757Z,100618.78
2022-10-22T19:21:33.168Z,100569.00
2022-10-22T19:24:01.320Z,100612.06
2022-10-22T19:26:29.877Z,100615.34
2022-10-22T19:28:58.363Z,100610.19
2022-10-22T19:31:30.211Z,100610.19
2022-10-22T19:33:57.764Z,100596.34
2022-10-22T19:36:26.387Z,100607.53
2022-10-22T19:38:53.809Z,100600.91
2022-10-22T19:41:22.211Z,100612.94
2022-10-22T19:43:51.307Z,100617.13
2022-10-22T19:46:18.991Z,100606.19
2022-10-22T19:51:24.094Z,100617.72
2022-10-22T19:53:51.155Z,100635.22
2022-10-22T19:56:20.419Z,100611.31
2022-10-22T19:58:47.220Z,100660.69
2022-10-22T20:01:17.094Z,100669.59
2022-10-22T20:03:45.217Z,100638.44
2022-10-22T20:06:14.615Z,100658.03
2022-10-22T20:08:41.538Z,100658.44
2022-10-22T20:11:11.192Z,100660.56
2022-10-22T20:13:40.711Z,100655.13
2022-10-22T20:16:07.376Z,100674.09
2022-10-22T20:18:34.345Z,100674.69
2022-10-22T20:21:06.178Z,100668.22
2022-10-22T20:23:33.253Z,100643.97
2022-10-22T20:25:59.951Z,100648.13
2022-10-22T20:28:26.738Z,100645.28
2022-10-22T20:30:53.444Z,100643.28
2022-10-22T20:33:20.026Z,100657.78
2022-10-22T20:35:47.009Z,100661.53
2022-10-22T20:38:15.079Z,100676.22
2022-10-22T20:40:41.775Z,100678.00
2022-10-22T20:43:12.372Z,100657.34
2022-10-22T20:45:39.087Z,100668.63
2022-10-22T20:48:06.064Z,100685.03
2022-10-22T20:50:33.279Z,100695.53
2022-10-22T20:52:59.903Z,100685.50
2022-10-22T20:55:27.492Z,100692.03
2022-10-22T20:57:54.407Z,100698.19
2022-10-22T21:00:21.188Z,100664.41
2022-10-22T21:02:47.865Z,100686.88
2022-10-22T21:05:14.613Z,100676.84
2022-10-22T21:07:41.358Z,100705.69
2022-10-22T21:10:08.291Z,100720.31
2022-10-22T21:12:35.067Z,100672.28
2022-10-22T21:15:01.822Z,100709.34
2022-10-22T21:17:28.483Z,100713.44
2022-10-22T21:19:55.073Z,100728.53
2022-10-22T21:22:21.674Z,100721.38
2022-10-22T21:24:48.238Z,100708.69
2022-10-22T21:27:15.089Z,100717.03
2022-10-22T21:29:41.703Z,100731.59
2022-10-22T21:32:11.416Z,100720.97
2022-10-22T21:34:39.101Z,100730.91
2022-10-22T21:37:05.877Z,100720.91
2022-10-22T21:39:32.548Z,100743.19
2022-10-22T21:41:59.329Z,100731.16
2022-10-22T21:44:25.916Z,100713.97
2022-10-22T21:46:52.560Z,100722.16
2022-10-22T21:49:19.442Z,100693.16
2022-10-22T21:51:46.066Z,100725.22
2022-10-22T21:54:12.821Z,100734.09
2022-10-22T21:56:39.916Z,100740.69
2022-10-22T21:59:07.214Z,100767.00
2022-10-22T22:01:34.461Z,100766.13
2022-10-22T22:04:02.102Z,100773.06
2022-10-22T22:06:33.144Z,100768.16
2022-10-22T22:09:01.600Z,100771.84
2022-10-22T22:11:29.928Z,100742.63
2022-10-22T22:13:58.258Z,100757.44
2022-10-22T22:16:28.586Z,100780.13
2022-10-22T22:18:57.077Z,100785.81
2022-10-22T22:21:23.826Z,100764.13
2022-10-22T22:23:51.355Z,100779.06
2022-10-22T22:26:25.414Z,100780.84
2022-10-22T22:28:55.816Z,100771.88
2022-10-22T22:31:33.711Z,100789.69
2022-10-22T22:34:02.129Z,100781.53
2022-10-22T22:36:32.402Z,100796.88
2022-10-22T22:38:59.061Z,100790.25
2022-10-22T22:41:25.639Z,100791.28
2022-10-22T22:43:52.376Z,100790.31
2022-10-22T22:46:19.129Z,100777.56
2022-10-22T22:48:49.366Z,100797.25
2022-10-22T22:51:16.170Z,100805.94
2022-10-22T22:53:42.784Z,100788.69
2022-10-22T22:56:34.268Z,100809.66
2022-10-22T22:59:01.458Z,100797.78
2022-10-22T23:01:33.707Z,100815.75
2022-10-22T23:04:06.113Z,100813.97
2022-10-22T23:06:36.171Z,100793.41
2022-10-22T23:09:08.349Z,100810.56
2022-10-22T23:11:35.118Z,100810.06
2022-10-22T23:14:04.392Z,100782.66
2022-10-22T23:16:33.847Z,100817.19
2022-10-22T23:19:01.326Z,100795.84
2022-10-22T23:21:36.663Z,100798.38
2022-10-22T23:24:07.275Z,100822.66
2022-10-22T23:26:40.640Z,100774.19
2022-10-22T23:29:11.292Z,100807.84
2022-10-22T23:31:38.498Z,100806.13
2022-10-22T23:34:06.270Z,100809.56
2022-10-22T23:36:37.378Z,100817.25
2022-10-22T23:39:09.513Z,100820.69
2022-10-22T23:41:36.723Z,100819.22
2022-10-22T23:44:04.349Z,100822.66
2022-10-22T23:46:31.087Z,100825.31
2022-10-22T23:48:57.719Z,100814.22
2022-10-22T23:51:24.484Z,100806.25
2022-10-22T23:53:59.758Z,100811.53
2022-10-22T23:56:27.517Z,100827.19
2022-10-22T23:58:54.607Z,100821.91
